createdAt,value
2019-03-06T00:00:25.996Z,99939.80
2019-03-06T00:03:29.531Z,99947.38
2019-03-06T00:06:32.980Z,99940.77
2019-03-06T00:09:36.725Z,99950.03
2019-03-06T00:12:40.185Z,99952.67
2019-03-06T00:15:43.793Z,99941.23
2019-03-06T00:18:47.391Z,99951.00
2019-03-06T00:21:51.917Z,99954.57
2019-03-06T00:24:55.528Z,99956.86
2019-03-06T00:27:59.113Z,99951.20
2019-03-06T00:31:02.848Z,99951.20
2019-03-06T00:34:07.417Z,99952.53
2019-03-06T00:37:10.853Z,99964.08
2019-03-06T00:40:39.318Z,99965.77
2019-03-06T00:43:42.875Z,99967.91
2019-03-06T00:46:48.392Z,99967.81
2019-03-06T00:49:51.899Z,99956.86
2019-03-06T00:52:55.381Z,99959.41
2019-03-06T00:55:59.018Z,99958.29
2019-03-06T00:59:02.657Z,99961.30
2019-03-06T01:02:07.121Z,99961.19
2019-03-06T01:05:10.723Z,99958.29
2019-03-06T01:08:14.572Z,99960.94
2019-03-06T01:11:18.036Z,99961.80
2019-03-06T01:14:21.546Z,99960.94
2019-03-06T01:17:25.039Z,99955.75
2019-03-06T01:20:29.565Z,99960.11
2019-03-06T01:23:33.157Z,99959.25
2019-03-06T01:26:36.813Z,99960.11
2019-03-06T01:29:40.682Z,99953.10
2019-03-06T01:32:44.964Z,99959.72
2019-03-06T01:36:12.629Z,99963.69
2019-03-06T01:39:31.167Z,99964.08
2019-03-06T01:42:45.373Z,99968.16
2019-03-06T01:45:49.005Z,99965.52
2019-03-06T01:48:52.477Z,99972.59
2019-03-06T01:51:55.983Z,99973.92
2019-03-06T01:55:00.520Z,99964.30
2019-03-06T01:58:03.993Z,99970.91
2019-03-06T02:01:07.612Z,99971.27
2019-03-06T02:04:11.207Z,99969.09
2019-03-06T02:07:16.215Z,99980.17
2019-03-06T02:10:19.841Z,99976.20
2019-03-06T02:13:23.695Z,99981.11
2019-03-06T02:16:27.264Z,99985.58
2019-03-06T02:19:30.790Z,99990.38
2019-03-06T02:22:34.262Z,99996.62
2019-03-06T02:25:37.847Z,99992.30
2019-03-06T02:28:42.293Z,99993.13
2019-03-06T02:31:45.812Z,100000.59
2019-03-06T02:34:49.291Z,99995.66
2019-03-06T02:37:54.847Z,100002.89
2019-03-06T02:40:58.362Z,99999.27
2019-03-06T02:44:01.829Z,100006.46
2019-03-06T02:47:05.341Z,100006.46
2019-03-06T02:50:09.947Z,100006.00
2019-03-06T02:53:14.823Z,100003.45
2019-03-06T02:56:18.426Z,100004.67
2019-03-06T02:59:27.279Z,99993.36
2019-03-06T03:03:07.929Z,99999.13
2019-03-06T03:06:17.549Z,99997.80
2019-03-06T03:09:21.071Z,99992.87
2019-03-06T03:12:24.559Z,99994.30
2019-03-06T03:15:28.150Z,99998.77
2019-03-06T03:18:31.763Z,100006.70
2019-03-06T03:21:36.274Z,100008.03
2019-03-06T03:24:40.812Z,100009.34
2019-03-06T03:27:44.312Z,100014.64
2019-03-06T03:30:47.915Z,100012.00
2019-03-06T03:33:51.545Z,100007.73
2019-03-06T03:36:55.021Z,100005.09
2019-03-06T03:39:58.458Z,100009.92
2019-03-06T03:43:02.430Z,100001.52
2019-03-06T03:46:05.945Z,100000.66
2019-03-06T03:49:09.507Z,99994.61
2019-03-06T03:52:13.134Z,99996.33
2019-03-06T03:55:16.679Z,100002.94
2019-03-06T03:58:20.159Z,100005.19
2019-03-06T04:01:23.640Z,100011.81
2019-03-06T04:04:27.175Z,100014.09
2019-03-06T04:07:30.651Z,100024.58
2019-03-06T04:10:34.134Z,100025.91
2019-03-06T04:13:38.663Z,100035.16
2019-03-06T04:16:42.179Z,100028.66
2019-03-06T04:19:45.667Z,100028.19
2019-03-06T04:22:50.198Z,100026.00
2019-03-06T04:25:53.687Z,100031.80
2019-03-06T04:28:57.204Z,100023.00
2019-03-06T04:32:00.709Z,100030.94
2019-03-06T04:35:10.348Z,100026.00
2019-03-06T04:38:14.876Z,100030.08
2019-03-06T04:41:18.354Z,100020.45
2019-03-06T04:44:21.793Z,100018.38
2019-03-06T04:47:25.369Z,100011.30
2019-03-06T04:50:28.899Z,100012.62
2019-03-06T04:53:32.386Z,100011.66
2019-03-06T04:56:35.869Z,100003.82
2019-03-06T04:59:40.399Z,100004.68
2019-03-06T05:02:45.935Z,99996.74
2019-03-06T05:05:49.429Z,99995.98
2019-03-06T05:08:53.056Z,99992.41
2019-03-06T05:11:56.538Z,99989.97
2019-03-06T05:15:00.228Z,99997.70
2019-03-06T05:18:22.909Z,99990.33
2019-03-06T05:21:27.444Z,99987.22
2019-03-06T05:24:30.931Z,99989.01
2019-03-06T05:27:34.417Z,99995.27
2019-03-06T05:30:38.130Z,99997.91
2019-03-06T05:33:41.632Z,100003.56
2019-03-06T05:37:28.969Z,100012.83
2019-03-06T05:40:32.419Z,100008.86
2019-03-06T05:43:35.985Z,100016.44
2019-03-06T05:46:39.472Z,100012.47
2019-03-06T05:49:43.595Z,99997.16
2019-03-06T05:52:47.096Z,99998.88
2019-03-06T05:55:50.615Z,99999.80
2019-03-06T05:58:54.102Z,100000.66
2019-03-06T06:01:59.647Z,100014.36
2019-03-06T06:05:04.653Z,100008.34
2019-03-06T06:08:08.299Z,100006.05
2019-03-06T06:11:11.964Z,100004.83
2019-03-06T06:14:15.470Z,100007.02
2019-03-06T06:17:18.977Z,99997.86
2019-03-06T06:20:22.470Z,99998.32
2019-03-06T06:23:46.040Z,99993.89
2019-03-06T06:26:49.649Z,99994.72
2019-03-06T06:29:53.277Z,99986.98
2019-03-06T06:32:57.881Z,99980.77
2019-03-06T06:36:01.547Z,99984.13
2019-03-06T06:39:06.283Z,99980.27
2019-03-06T06:42:09.932Z,99980.38
2019-03-06T06:45:14.482Z,99972.93
2019-03-06T06:48:19.924Z,99975.08
2019-03-06T06:51:40.720Z,99968.10
2019-03-06T06:54:52.116Z,99960.77
2019-03-06T06:58:31.417Z,99955.48
2019-03-06T07:02:07.771Z,99946.58
2019-03-06T07:05:43.410Z,99955.84
2019-03-06T07:09:09.036Z,99956.30
2019-03-06T07:12:23.853Z,99960.77
2019-03-06T07:15:42.722Z,99966.98
2019-03-06T07:19:14.561Z,99968.70
2019-03-06T07:22:33.041Z,99965.66
2019-03-06T07:25:58.935Z,99956.41
2019-03-06T07:29:06.865Z,99949.43
2019-03-06T07:32:20.378Z,99949.43
2019-03-06T07:35:57.895Z,99946.32
2019-03-06T07:39:20.932Z,99942.81
2019-03-06T07:42:42.525Z,99934.41
2019-03-06T07:46:11.561Z,99937.16
2019-03-06T07:49:29.001Z,99944.14
2019-03-06T07:52:42.715Z,99936.67
2019-03-06T07:56:09.071Z,99930.55
2019-03-06T07:59:12.875Z,99919.97
2019-03-06T08:02:20.206Z,99927.52
2019-03-06T08:05:23.874Z,99930.16
2019-03-06T08:08:27.377Z,99925.26
2019-03-06T08:11:56.294Z,99908.99
2019-03-06T08:15:18.916Z,99907.67
2019-03-06T08:18:32.927Z,99914.28
2019-03-06T08:21:48.853Z,99907.10
2019-03-06T08:25:12.133Z,99909.53
2019-03-06T08:28:15.764Z,99905.36
2019-03-06T08:31:26.565Z,99909.33
2019-03-06T08:34:30.097Z,99916.77
2019-03-06T08:37:33.738Z,99922.34
2019-03-06T08:40:37.286Z,99913.08
2019-03-06T08:43:40.914Z,99905.51
2019-03-06T08:46:51.595Z,99914.20
2019-03-06T08:50:08.651Z,99905.66
2019-03-06T08:53:16.365Z,99913.02
2019-03-06T08:56:30.584Z,99913.48
2019-03-06T08:59:46.373Z,99897.04
2019-03-06T09:03:17.802Z,99890.31
2019-03-06T09:06:36.046Z,99886.70
2019-03-06T09:09:53.266Z,99875.52
2019-03-06T09:13:16.734Z,99876.27
2019-03-06T09:16:38.139Z,99870.86
2019-03-06T09:20:17.632Z,99871.61
2019-03-06T09:23:32.060Z,99863.78
2019-03-06T09:26:45.399Z,99860.42
2019-03-06T09:30:00.873Z,99859.95
2019-03-06T09:33:18.817Z,99850.58
2019-03-06T09:36:47.185Z,99849.16
2019-03-06T09:40:24.972Z,99842.89
2019-03-06T09:43:46.345Z,99840.50
2019-03-06T09:46:56.165Z,99833.77
2019-03-06T09:50:11.749Z,99834.52
2019-03-06T09:53:36.141Z,99839.81
2019-03-06T09:56:53.774Z,99824.28
2019-03-06T10:00:35.463Z,99823.70
2019-03-06T10:04:04.153Z,99828.86
2019-03-06T10:07:42.029Z,99826.10
2019-03-06T10:10:57.509Z,99833.61
2019-03-06T10:14:24.128Z,99820.37
2019-03-06T10:17:40.713Z,99823.55
2019-03-06T10:20:44.286Z,99813.88
2019-03-06T10:23:49.009Z,99801.86
2019-03-06T10:26:53.050Z,99806.47
2019-03-06T10:29:57.100Z,99809.11
2019-03-06T10:33:00.563Z,99801.77
2019-03-06T10:36:04.328Z,99785.05
2019-03-06T10:39:08.019Z,99780.39
2019-03-06T10:42:11.507Z,99769.69
2019-03-06T10:45:22.142Z,99774.27
2019-03-06T10:48:26.043Z,99765.13
2019-03-06T10:51:31.117Z,99767.78
2019-03-06T10:54:37.902Z,99769.23
2019-03-06T10:57:40.202Z,99766.94
2019-03-06T11:00:49.924Z,99755.77
2019-03-06T11:04:30.958Z,99754.09
2019-03-06T11:07:34.923Z,99740.35
2019-03-06T11:10:38.485Z,99739.16
2019-03-06T11:13:43.063Z,99744.22
2019-03-06T11:16:46.796Z,99753.88
2019-03-06T11:19:50.634Z,99750.84
2019-03-06T11:22:54.357Z,99747.85
2019-03-06T11:25:57.827Z,99734.84
2019-03-06T11:29:01.381Z,99723.42
2019-03-06T11:32:04.949Z,99734.37
2019-03-06T11:35:09.873Z,99726.67
2019-03-06T11:38:14.506Z,99727.17
2019-03-06T11:41:18.259Z,99724.64
2019-03-06T11:44:21.733Z,99713.42
2019-03-06T11:47:25.204Z,99716.46
2019-03-06T11:50:28.721Z,99706.21
2019-03-06T11:53:33.267Z,99702.97
2019-03-06T11:56:36.735Z,99705.23
2019-03-06T11:59:40.473Z,99695.49
2019-03-06T12:02:44.045Z,99691.98
2019-03-06T12:05:48.721Z,99680.45
2019-03-06T12:08:52.255Z,99685.75
2019-03-06T12:11:55.953Z,99685.12
2019-03-06T12:14:59.658Z,99678.73
2019-03-06T12:18:03.364Z,99669.11
2019-03-06T12:21:07.109Z,99661.74
2019-03-06T12:24:10.807Z,99666.69
2019-03-06T12:27:14.373Z,99655.97
2019-03-06T12:30:17.977Z,99648.64
2019-03-06T12:33:26.011Z,99645.25
2019-03-06T12:36:29.710Z,99636.95
2019-03-06T12:39:33.568Z,99641.39
2019-03-06T12:42:37.174Z,99632.47
2019-03-06T12:45:40.848Z,99628.50
2019-03-06T12:48:51.338Z,99625.61
2019-03-06T12:51:54.953Z,99616.22
2019-03-06T12:54:58.597Z,99607.67
2019-03-06T12:58:02.134Z,99589.47
2019-03-06T13:01:07.224Z,99585.50
2019-03-06T13:04:10.740Z,99575.24
2019-03-06T13:07:14.256Z,99567.52
2019-03-06T13:10:18.274Z,99560.67
2019-03-06T13:13:21.930Z,99555.86
2019-03-06T13:16:25.611Z,99542.95
2019-03-06T13:19:29.109Z,99529.11
2019-03-06T13:22:33.569Z,99519.20
2019-03-06T13:25:37.156Z,99506.67
2019-03-06T13:28:40.859Z,99493.52
2019-03-06T13:31:44.289Z,99484.59
2019-03-06T13:34:56.002Z,99488.23
2019-03-06T13:37:59.502Z,99483.40
2019-03-06T13:41:02.998Z,99467.63
2019-03-06T13:44:06.488Z,99470.97
2019-03-06T13:47:09.994Z,99474.34
2019-03-06T13:50:13.498Z,99461.91
2019-03-06T13:53:20.530Z,99462.98
2019-03-06T13:56:23.375Z,99460.20
2019-03-06T13:59:26.933Z,99461.88
2019-03-06T14:02:30.374Z,99455.62
2019-03-06T14:05:33.994Z,99448.49
2019-03-06T14:08:40.953Z,99435.11
2019-03-06T14:11:44.623Z,99425.70
2019-03-06T14:14:48.103Z,99416.29
2019-03-06T14:17:51.659Z,99404.01
2019-03-06T14:20:55.263Z,99398.70
2019-03-06T14:23:58.885Z,99401.58
2019-03-06T14:27:02.468Z,99395.42
2019-03-06T14:30:08.162Z,99382.16
2019-03-06T14:33:11.736Z,99381.21
2019-03-06T14:36:16.270Z,99382.88
2019-03-06T14:39:24.986Z,99371.30
2019-03-06T14:42:28.586Z,99361.41
2019-03-06T14:45:32.513Z,99359.48
2019-03-06T14:48:37.033Z,99364.78
2019-03-06T14:51:40.518Z,99351.86
2019-03-06T14:54:44.234Z,99350.41
2019-03-06T14:57:47.946Z,99345.92
2019-03-06T15:00:51.531Z,99356.53
2019-03-06T15:03:55.547Z,99354.25
2019-03-06T15:06:59.038Z,99341.25
2019-03-06T15:10:02.548Z,99338.95
2019-03-06T15:13:07.069Z,99337.27
2019-03-06T15:16:10.580Z,99337.27
2019-03-06T15:19:15.220Z,99332.23
2019-03-06T15:22:18.813Z,99325.59
2019-03-06T15:25:22.422Z,99322.95
2019-03-06T15:28:26.112Z,99313.66
2019-03-06T15:31:30.764Z,99304.52
2019-03-06T15:34:35.266Z,99291.03
2019-03-06T15:37:38.771Z,99286.34
2019-03-06T15:40:42.290Z,99280.21
2019-03-06T15:43:46.775Z,99273.42
2019-03-06T15:46:50.242Z,99275.38
2019-03-06T15:49:53.793Z,99270.08
2019-03-06T15:52:57.291Z,99268.41
2019-03-06T15:56:01.837Z,99260.58
2019-03-06T15:59:14.423Z,99258.41
2019-03-06T16:02:10.683Z,99253.45
2019-03-06T16:05:15.795Z,99249.98
2019-03-06T16:08:20.330Z,99236.47
2019-03-06T16:11:24.044Z,99238.78
2019-03-06T16:14:27.541Z,99228.17
2019-03-06T16:17:31.051Z,99234.11
2019-03-06T16:20:34.863Z,99220.86
2019-03-06T16:23:39.477Z,99222.87
2019-03-06T16:26:43.090Z,99208.07
2019-03-06T16:29:47.603Z,99197.47
2019-03-06T16:32:51.301Z,99192.64
2019-03-06T16:35:54.913Z,99185.66
2019-03-06T16:38:58.502Z,99181.21
2019-03-06T16:42:02.110Z,99180.97
2019-03-06T16:45:05.781Z,99167.71
2019-03-06T16:48:09.356Z,99178.31
2019-03-06T16:51:12.839Z,99175.32
2019-03-06T16:54:16.315Z,99171.69
2019-03-06T16:57:20.992Z,99172.67
2019-03-06T17:00:26.218Z,99160.88
2019-03-06T17:03:29.697Z,99163.87
2019-03-06T17:06:33.460Z,99157.03
2019-03-06T17:09:37.098Z,99154.75
2019-03-06T17:12:40.607Z,99149.80
2019-03-06T17:15:44.186Z,99147.75
2019-03-06T17:18:49.044Z,99144.28
2019-03-06T17:21:52.550Z,99136.33
2019-03-06T17:24:56.061Z,99130.78
2019-03-06T17:27:59.959Z,99131.16
2019-03-06T17:31:03.504Z,99135.36
2019-03-06T17:34:06.965Z,99123.81
2019-03-06T17:37:10.684Z,99121.16
2019-03-06T17:40:15.190Z,99121.16
2019-03-06T17:43:19.728Z,99120.17
2019-03-06T17:46:23.225Z,99116.81
2019-03-06T17:49:26.713Z,99119.84
2019-03-06T17:52:31.365Z,99116.81
2019-03-06T17:55:34.951Z,99115.86
2019-03-06T17:58:38.628Z,99106.92
2019-03-06T18:01:42.157Z,99108.98
2019-03-06T18:04:45.873Z,99098.86
2019-03-06T18:07:49.375Z,99095.60
2019-03-06T18:10:53.913Z,99095.23
2019-03-06T18:13:57.370Z,99082.25
2019-03-06T18:17:00.882Z,99075.72
2019-03-06T18:20:04.582Z,99078.00
2019-03-06T18:23:08.116Z,99073.67
2019-03-06T18:26:11.627Z,99066.06
2019-03-06T18:29:15.098Z,99066.23
2019-03-06T18:32:18.588Z,99061.75
2019-03-06T18:35:22.099Z,99055.63
2019-03-06T18:38:27.270Z,99054.64
2019-03-06T18:41:31.819Z,99054.78
2019-03-06T18:44:35.251Z,99047.67
2019-03-06T18:47:38.776Z,99038.88
2019-03-06T18:50:42.287Z,99039.86
2019-03-06T18:53:45.775Z,99041.66
2019-03-06T18:56:49.340Z,99036.49
2019-03-06T18:59:53.071Z,99030.44
2019-03-06T19:02:56.828Z,99025.28
2019-03-06T19:06:00.379Z,99019.60
2019-03-06T19:09:07.511Z,99015.16
2019-03-06T19:12:11.067Z,99017.33
2019-03-06T19:15:17.237Z,99021.44
2019-03-06T19:18:20.737Z,99027.55
2019-03-06T19:21:24.259Z,99019.98
2019-03-06T19:24:27.739Z,99024.09
2019-03-06T19:27:31.238Z,99025.89
2019-03-06T19:30:36.780Z,99020.59
2019-03-06T19:33:40.281Z,99019.27
2019-03-06T19:36:43.781Z,99026.23
2019-03-06T19:39:47.287Z,99022.89
2019-03-06T19:42:50.918Z,99023.38
2019-03-06T19:45:54.527Z,99026.88
2019-03-06T19:48:57.967Z,99031.46
2019-03-06T19:52:01.467Z,99029.86
2019-03-06T19:55:05.278Z,99020.86
2019-03-06T19:58:09.024Z,99018.20
2019-03-06T20:01:12.629Z,99008.45
2019-03-06T20:04:16.186Z,99003.97
2019-03-06T20:07:19.825Z,99011.23
2019-03-06T20:10:24.346Z,99009.44
2019-03-06T20:13:29.028Z,99001.96
2019-03-06T20:16:32.604Z,98992.05
2019-03-06T20:19:36.188Z,99000.16
2019-03-06T20:22:40.822Z,98998.33
2019-03-06T20:25:44.305Z,99000.50
2019-03-06T20:28:47.821Z,98984.73
2019-03-06T20:31:52.363Z,98986.67
2019-03-06T20:34:55.856Z,98988.00
2019-03-06T20:38:01.686Z,98978.45
2019-03-06T20:41:06.135Z,98970.50
2019-03-06T20:44:09.728Z,98965.84
2019-03-06T20:47:13.397Z,98958.23
2019-03-06T20:50:17.896Z,98953.47
2019-03-06T20:53:21.346Z,98943.17
2019-03-06T20:56:24.954Z,98936.04
2019-03-06T20:59:28.579Z,98927.41
2019-03-06T21:02:32.117Z,98923.91
2019-03-06T21:05:36.077Z,98924.52
2019-03-06T21:08:40.717Z,98926.36
2019-03-06T21:11:44.193Z,98920.82
2019-03-06T21:14:47.691Z,98926.97
2019-03-06T21:17:51.220Z,98923.12
2019-03-06T21:20:54.708Z,98917.49
2019-03-06T21:23:58.200Z,98921.80
2019-03-06T21:27:02.734Z,98913.99
2019-03-06T21:30:08.768Z,98917.63
2019-03-06T21:33:13.214Z,98903.19
2019-03-06T21:36:16.740Z,98906.31
2019-03-06T21:39:22.137Z,98909.95
2019-03-06T21:42:25.832Z,98924.19
2019-03-06T21:45:33.656Z,98916.84
2019-03-06T21:48:36.675Z,98914.91
2019-03-06T21:51:42.202Z,98913.86
2019-03-06T21:54:45.703Z,98910.87
2019-03-06T21:57:49.285Z,98913.86
2019-03-06T22:00:53.027Z,98911.48
2019-03-06T22:03:56.611Z,98908.70
2019-03-06T22:07:00.113Z,98899.89
2019-03-06T22:10:03.827Z,98897.89
2019-03-06T22:13:07.305Z,98891.75
2019-03-06T22:16:11.831Z,98895.86
2019-03-06T22:19:15.436Z,98889.38
2019-03-06T22:22:19.295Z,98894.19
2019-03-06T22:25:22.831Z,98890.83
2019-03-06T22:28:27.282Z,98888.18
2019-03-06T22:31:30.787Z,98886.38
2019-03-06T22:34:34.215Z,98879.55
2019-03-06T22:37:37.782Z,98889.91
2019-03-06T22:40:42.307Z,98892.94
2019-03-06T22:43:45.948Z,98890.77
2019-03-06T22:46:49.506Z,98887.77
2019-03-06T22:49:53.159Z,98882.48
2019-03-06T22:52:56.732Z,98868.17
2019-03-06T22:56:00.192Z,98873.81
2019-03-06T22:59:03.736Z,98870.48
2019-03-06T23:02:07.472Z,98857.58
2019-03-06T23:05:10.891Z,98862.41
2019-03-06T23:08:14.669Z,98850.62
2019-03-06T23:11:18.180Z,98848.58
2019-03-06T23:14:21.886Z,98834.66
2019-03-06T23:17:25.759Z,98833.67
2019-03-06T23:20:30.293Z,98825.73
2019-03-06T23:23:34.819Z,98820.44
2019-03-06T23:26:42.656Z,98810.83
2019-03-06T23:29:43.681Z,98816.59
2019-03-06T23:32:47.156Z,98809.27
2019-03-06T23:35:50.751Z,98807.13
2019-03-06T23:38:54.353Z,98804.48
2019-03-06T23:41:58.884Z,98801.45
2019-03-06T23:45:03.422Z,98793.52
2019-03-06T23:48:06.905Z,98784.38
2019-03-06T23:51:16.598Z,98781.39
2019-03-06T23:54:20.105Z,98772.59
2019-03-06T23:57:23.974Z,98772.26
